createdAt,value
2018-06-03T00:01:39.405Z,45.00
2018-06-03T00:04:08.060Z,47.67
2018-06-03T00:06:36.542Z,42.00
2018-06-03T00:09:06.157Z,45.73
2018-06-03T00:11:34.870Z,45.70
2018-06-03T00:14:03.378Z,44.23
2018-06-03T00:16:31.866Z,46.70
2018-06-03T00:19:00.399Z,45.87
2018-06-03T00:21:40.184Z,46.30
2018-06-03T00:24:08.726Z,47.50
2018-06-03T00:26:37.245Z,43.20
2018-06-03T00:29:05.846Z,44.33
2018-06-03T00:31:34.373Z,47.40
2018-06-03T00:34:02.932Z,48.00
2018-06-03T00:36:42.646Z,49.00
2018-06-03T00:39:11.134Z,47.93
2018-06-03T00:41:39.659Z,47.60
2018-06-03T00:44:08.164Z,49.10
2018-06-03T00:46:36.687Z,53.10
2018-06-03T00:49:05.234Z,47.80
2018-06-03T00:51:33.734Z,53.40
2018-06-03T00:54:02.294Z,50.43
2018-06-03T00:56:42.074Z,49.63
2018-06-03T00:59:10.582Z,49.73
2018-06-03T01:01:39.095Z,48.90
2018-06-03T01:04:07.722Z,51.03
2018-06-03T01:06:36.281Z,51.00
2018-06-03T01:09:06.552Z,50.97
2018-06-03T01:11:35.090Z,50.53
2018-06-03T01:14:03.688Z,50.10
2018-06-03T01:16:32.345Z,52.60
2018-06-03T01:19:00.838Z,48.80
2018-06-03T01:21:29.339Z,47.90
2018-06-03T01:23:57.847Z,53.40
2018-06-03T01:26:26.342Z,50.20
2018-06-03T01:28:54.980Z,48.63
2018-06-03T01:31:23.474Z,49.97
2018-06-03T01:33:51.962Z,50.87
2018-06-03T01:36:20.474Z,51.53
2018-06-03T01:38:48.974Z,51.37
2018-06-03T01:41:17.572Z,50.37
2018-06-03T01:43:46.052Z,52.37
2018-06-03T01:46:14.518Z,50.90
2018-06-03T01:48:43.013Z,50.00
2018-06-03T01:51:11.548Z,50.00
2018-06-03T01:53:40.543Z,49.33
2018-06-03T01:56:09.023Z,49.80
2018-06-03T01:58:37.645Z,50.43
2018-06-03T02:01:06.382Z,49.53
2018-06-03T02:03:34.889Z,47.27
2018-06-03T02:06:03.371Z,49.10
2018-06-03T02:08:31.924Z,47.83
2018-06-03T02:11:00.401Z,49.20
2018-06-03T02:13:28.894Z,46.17
2018-06-03T02:15:57.389Z,49.20
2018-06-03T02:18:25.905Z,47.33
2018-06-03T02:20:54.402Z,46.27
2018-06-03T02:23:22.901Z,47.80
2018-06-03T02:25:51.433Z,48.33
2018-06-03T02:28:20.026Z,46.03
2018-06-03T02:30:48.532Z,46.57
2018-06-03T02:33:17.034Z,47.27
2018-06-03T02:35:45.974Z,45.57
2018-06-03T02:38:14.471Z,46.33
2018-06-03T02:40:42.968Z,44.77
2018-06-03T02:43:11.484Z,50.40
2018-06-03T02:45:39.979Z,46.63
2018-06-03T02:48:08.503Z,47.83
2018-06-03T02:50:36.971Z,44.63
2018-06-03T02:53:05.691Z,46.63
2018-06-03T02:55:34.231Z,46.50
2018-06-03T02:58:02.710Z,45.43
2018-06-03T03:00:31.413Z,48.37
2018-06-03T03:02:59.885Z,45.40
2018-06-03T03:05:28.352Z,44.17
2018-06-03T03:07:57.222Z,47.27
2018-06-03T03:10:25.694Z,46.17
2018-06-03T03:12:54.165Z,45.80
2018-06-03T03:15:22.902Z,45.20
2018-06-03T03:17:51.413Z,46.17
2018-06-03T03:20:19.941Z,49.07
2018-06-03T03:22:48.418Z,46.40
2018-06-03T03:25:16.895Z,46.27
2018-06-03T03:27:45.386Z,47.90
2018-06-03T03:30:13.896Z,44.53
2018-06-03T03:32:42.393Z,47.43
2018-06-03T03:35:10.894Z,46.47
2018-06-03T03:37:39.375Z,47.37
2018-06-03T03:40:07.929Z,47.73
2018-06-03T03:42:36.415Z,46.20
2018-06-03T03:45:04.918Z,45.53
2018-06-03T03:47:33.876Z,47.17
2018-06-03T03:50:02.356Z,47.47
2018-06-03T03:52:30.829Z,47.60
2018-06-03T03:54:59.402Z,44.53
2018-06-03T03:57:28.135Z,47.03
2018-06-03T03:59:56.653Z,46.37
2018-06-03T04:02:25.186Z,47.60
2018-06-03T04:04:53.851Z,49.97
2018-06-03T04:07:22.350Z,46.23
2018-06-03T04:09:50.866Z,47.37
2018-06-03T04:12:19.385Z,49.50
2018-06-03T04:14:47.885Z,47.93
2018-06-03T04:17:16.364Z,49.60
2018-06-03T04:19:45.322Z,48.20
2018-06-03T04:22:13.826Z,47.20
2018-06-03T04:24:42.277Z,48.23
2018-06-03T04:27:10.773Z,49.30
2018-06-03T04:29:39.272Z,48.30
2018-06-03T04:32:07.825Z,48.20
2018-06-03T04:34:36.430Z,49.20
2018-06-03T04:37:05.029Z,48.53
2018-06-03T04:39:33.510Z,46.20
2018-06-03T04:42:01.994Z,48.43
2018-06-03T04:44:30.514Z,47.67
2018-06-03T04:46:58.996Z,48.07
2018-06-03T04:49:27.548Z,47.43
2018-06-03T04:51:56.583Z,46.80
2018-06-03T04:54:25.070Z,48.20
2018-06-03T04:56:53.577Z,47.70
2018-06-03T04:59:22.086Z,46.47
2018-06-03T05:01:50.775Z,45.00
2018-06-03T05:04:19.470Z,46.70
2018-06-03T05:06:47.945Z,48.33
2018-06-03T05:09:16.413Z,49.40
2018-06-03T05:11:44.939Z,47.97
2018-06-03T05:14:13.434Z,49.07
2018-06-03T05:16:41.935Z,51.20
2018-06-03T05:19:10.485Z,48.30
2018-06-03T05:21:38.989Z,50.20
2018-06-03T05:24:07.506Z,47.03
2018-06-03T05:26:36.026Z,50.27
2018-06-03T05:29:04.509Z,48.33
2018-06-03T05:31:33.002Z,49.53
2018-06-03T05:34:01.526Z,50.43
2018-06-03T05:36:30.013Z,46.77
2018-06-03T05:38:58.523Z,46.17
2018-06-03T05:41:27.076Z,48.40
2018-06-03T05:43:55.563Z,48.10
2018-06-03T05:46:24.050Z,45.57
2018-06-03T05:48:52.643Z,46.20
2018-06-03T05:51:21.129Z,47.47
2018-06-03T05:53:49.658Z,48.00
2018-06-03T05:56:18.173Z,48.23
2018-06-03T05:58:46.697Z,45.70
2018-06-03T06:01:15.191Z,49.30
2018-06-03T06:03:43.702Z,43.63
2018-06-03T06:06:12.370Z,45.93
2018-06-03T06:08:40.834Z,44.23
2018-06-03T06:11:09.337Z,45.40
2018-06-03T06:13:37.811Z,43.90
2018-06-03T06:16:06.642Z,41.50
2018-06-03T06:18:35.163Z,42.50
2018-06-03T06:21:03.774Z,43.90
2018-06-03T06:23:32.277Z,44.17
2018-06-03T06:26:01.239Z,43.60
2018-06-03T06:28:29.721Z,42.73
2018-06-03T06:30:58.227Z,44.30
2018-06-03T06:33:26.742Z,41.63
2018-06-03T06:35:55.202Z,44.47
2018-06-03T06:38:24.034Z,40.17
2018-06-03T06:40:52.510Z,43.30
2018-06-03T06:43:20.985Z,41.83
2018-06-03T06:45:49.710Z,42.20
2018-06-03T06:48:18.207Z,40.60
2018-06-03T06:50:46.724Z,45.53
2018-06-03T06:53:15.229Z,39.30
2018-06-03T06:55:43.858Z,38.70
2018-06-03T06:58:12.343Z,38.37
2018-06-03T07:00:40.811Z,36.57
2018-06-03T07:03:09.359Z,38.67
2018-06-03T07:05:38.025Z,37.30
2018-06-03T07:08:06.491Z,34.20
2018-06-03T07:10:36.014Z,35.13
2018-06-03T07:13:04.555Z,34.60
2018-06-03T07:15:33.299Z,34.67
2018-06-03T07:18:01.804Z,33.90
2018-06-03T07:20:30.795Z,28.97
2018-06-03T07:22:59.317Z,31.53
2018-06-03T07:25:27.792Z,27.50
2018-06-03T07:27:56.319Z,30.60
2018-06-03T07:30:24.891Z,28.40
2018-06-03T07:32:53.394Z,29.97
2018-06-03T07:35:21.867Z,27.77
2018-06-03T07:37:50.574Z,30.60
2018-06-03T07:40:19.043Z,30.50
2018-06-03T07:42:47.539Z,29.47
2018-06-03T07:45:16.037Z,29.70
2018-06-03T07:47:44.614Z,28.60
2018-06-03T07:50:13.533Z,28.93
2018-06-03T07:52:42.025Z,27.90
2018-06-03T07:55:10.531Z,27.60
2018-06-03T07:57:39.022Z,26.30
2018-06-03T08:00:07.497Z,28.63
2018-06-03T08:02:35.993Z,26.20
2018-06-03T08:05:04.685Z,26.10
2018-06-03T08:07:33.198Z,24.83
2018-06-03T08:10:01.748Z,25.47
2018-06-03T08:12:30.350Z,25.50
2018-06-03T08:14:59.143Z,23.87
2018-06-03T08:17:27.633Z,22.57
2018-06-03T08:19:56.141Z,23.70
2018-06-03T08:22:24.638Z,23.40
2018-06-03T08:24:53.161Z,23.00
2018-06-03T08:27:21.643Z,21.83
2018-06-03T08:29:50.253Z,21.27
2018-06-03T08:32:18.874Z,19.90
2018-06-03T08:34:47.370Z,20.03
2018-06-03T08:37:15.853Z,19.53
2018-06-03T08:39:44.403Z,19.77
2018-06-03T08:42:12.922Z,18.70
2018-06-03T08:44:41.389Z,19.53
2018-06-03T08:47:09.864Z,18.50
2018-06-03T08:49:38.370Z,18.93
2018-06-03T08:52:07.095Z,18.60
2018-06-03T08:54:35.725Z,20.77
2018-06-03T08:57:04.353Z,19.23
2018-06-03T08:59:32.838Z,19.70
2018-06-03T09:02:01.335Z,20.20
2018-06-03T09:04:29.894Z,21.83
2018-06-03T09:06:58.426Z,21.67
2018-06-03T09:09:26.931Z,18.47
2018-06-03T09:11:55.425Z,20.40
2018-06-03T09:14:23.937Z,18.97
2018-06-03T09:16:52.425Z,21.87
2018-06-03T09:19:20.924Z,20.93
2018-06-03T09:21:49.423Z,20.80
2018-06-03T09:24:18.405Z,19.93
2018-06-03T09:26:46.910Z,20.50
2018-06-03T09:29:15.394Z,19.73
2018-06-03T09:31:44.098Z,19.93
2018-06-03T09:34:12.573Z,16.90
2018-06-03T09:36:41.058Z,15.17
2018-06-03T09:39:09.638Z,16.50
2018-06-03T09:41:38.115Z,17.60
2018-06-03T09:44:06.634Z,12.60
2018-06-03T09:46:35.152Z,16.27
2018-06-03T09:49:03.655Z,16.80
2018-06-03T09:51:32.171Z,17.47
2018-06-03T09:54:00.642Z,16.93
2018-06-03T09:56:29.266Z,16.80
2018-06-03T09:58:57.767Z,17.10
2018-06-03T10:01:26.243Z,17.20
2018-06-03T10:03:54.775Z,18.20
2018-06-03T10:06:23.497Z,16.30
2018-06-03T10:08:52.067Z,17.97
2018-06-03T10:11:20.595Z,18.40
2018-06-03T10:13:49.097Z,19.10
2018-06-03T10:16:17.633Z,19.07
2018-06-03T10:18:46.155Z,21.07
2018-06-03T10:21:14.758Z,18.63
2018-06-03T10:23:43.295Z,19.40
2018-06-03T10:26:11.779Z,21.40
2018-06-03T10:28:40.260Z,22.57
2018-06-03T10:31:08.866Z,22.53
2018-06-03T10:33:37.396Z,20.67
2018-06-03T10:36:05.898Z,20.13
2018-06-03T10:38:34.407Z,19.00
2018-06-03T10:41:02.923Z,20.73
2018-06-03T10:43:31.991Z,21.03
2018-06-03T10:46:00.531Z,19.40
2018-06-03T10:48:29.044Z,20.37
2018-06-03T10:50:57.902Z,22.80
2018-06-03T10:53:26.401Z,20.57
2018-06-03T10:55:54.873Z,19.33
2018-06-03T10:58:23.386Z,21.63
2018-06-03T11:00:51.915Z,21.93
2018-06-03T11:03:20.418Z,20.20
2018-06-03T11:05:48.983Z,18.77
2018-06-03T11:08:17.583Z,17.27
2018-06-03T11:10:46.567Z,20.40
2018-06-03T11:13:15.087Z,17.60
2018-06-03T11:15:43.584Z,15.00
2018-06-03T11:18:12.249Z,15.13
2018-06-03T11:20:40.726Z,15.37
2018-06-03T11:23:09.221Z,13.33
2018-06-03T11:25:37.819Z,14.97
2018-06-03T11:28:06.335Z,13.23
2018-06-03T11:30:34.841Z,13.43
2018-06-03T11:33:03.355Z,12.90
2018-06-03T11:35:31.845Z,13.60
2018-06-03T11:38:00.714Z,12.30
2018-06-03T11:40:29.220Z,14.10
2018-06-03T11:42:57.757Z,12.73
2018-06-03T11:45:26.411Z,13.30
2018-06-03T11:47:54.928Z,11.77
2018-06-03T11:50:23.445Z,13.07
2018-06-03T11:52:51.961Z,13.97
2018-06-03T11:55:20.454Z,14.10
2018-06-03T11:58:01.114Z,13.60
2018-06-03T12:00:29.723Z,14.00
2018-06-03T12:02:58.225Z,12.60
2018-06-03T12:05:26.722Z,13.57
2018-06-03T12:07:55.661Z,13.33
2018-06-03T12:10:24.330Z,11.90
2018-06-03T12:12:52.802Z,10.13
2018-06-03T12:15:21.404Z,10.63
2018-06-03T12:17:49.889Z,10.57
2018-06-03T12:20:18.387Z,11.07
2018-06-03T12:22:46.885Z,10.87
2018-06-03T12:25:15.547Z,11.43
2018-06-03T12:27:44.033Z,8.70
2018-06-03T12:30:12.510Z,10.97
2018-06-03T12:32:41.043Z,11.33
2018-06-03T12:35:09.513Z,9.70
2018-06-03T12:37:38.063Z,11.30
2018-06-03T12:40:06.686Z,11.03
2018-06-03T12:42:35.280Z,10.43
2018-06-03T12:45:03.869Z,11.43
2018-06-03T12:47:32.454Z,11.17
2018-06-03T12:50:01.111Z,11.67
2018-06-03T12:52:29.627Z,11.90
2018-06-03T12:54:58.074Z,11.60
2018-06-03T12:57:26.583Z,10.40
2018-06-03T12:59:55.114Z,11.40
2018-06-03T13:02:23.638Z,11.83
2018-06-03T13:04:52.273Z,11.93
2018-06-03T13:07:20.800Z,11.80
2018-06-03T13:09:49.432Z,12.00
2018-06-03T13:12:17.934Z,11.57
2018-06-03T13:14:46.493Z,10.80
2018-06-03T13:17:16.169Z,8.60
2018-06-03T13:19:44.667Z,9.67
2018-06-03T13:22:13.206Z,10.00
2018-06-03T13:24:41.686Z,12.20
2018-06-03T13:27:10.161Z,11.03
2018-06-03T13:29:38.726Z,11.30
2018-06-03T13:32:07.198Z,11.20
2018-06-03T13:34:35.853Z,11.60
2018-06-03T13:37:04.803Z,11.60
2018-06-03T13:39:33.340Z,10.50
2018-06-03T13:42:01.986Z,10.17
2018-06-03T13:44:30.524Z,10.27
2018-06-03T13:46:59.051Z,11.23
2018-06-03T13:49:27.590Z,11.60
2018-06-03T13:51:57.106Z,11.67
2018-06-03T13:54:25.630Z,10.10
2018-06-03T13:56:54.113Z,11.77
2018-06-03T13:59:22.641Z,11.60
2018-06-03T14:01:51.751Z,11.17
2018-06-03T14:04:20.262Z,10.80
2018-06-03T14:06:49.017Z,10.03
2018-06-03T14:09:17.742Z,10.10
2018-06-03T14:11:46.237Z,11.10
2018-06-03T14:14:14.833Z,9.73
2018-06-03T14:16:43.289Z,9.47
2018-06-03T14:19:11.777Z,9.63
2018-06-03T14:21:40.257Z,9.40
2018-06-03T14:24:08.871Z,10.17
2018-06-03T14:26:38.376Z,9.67
2018-06-03T14:29:06.890Z,8.70
2018-06-03T14:31:35.402Z,10.00
2018-06-03T14:34:03.909Z,9.40
2018-06-03T14:36:32.479Z,9.97
2018-06-03T14:39:01.989Z,10.43
2018-06-03T14:41:30.508Z,10.30
2018-06-03T14:43:59.120Z,10.57
2018-06-03T14:46:27.667Z,11.30
2018-06-03T14:48:56.206Z,10.53
2018-06-03T14:51:24.707Z,11.07
2018-06-03T14:53:53.187Z,9.87
2018-06-03T14:56:21.839Z,9.47
2018-06-03T14:58:50.262Z,9.77
2018-06-03T15:01:18.779Z,11.10
2018-06-03T15:03:47.297Z,11.17
2018-06-03T15:06:15.818Z,12.20
2018-06-03T15:08:44.306Z,11.87
2018-06-03T15:11:12.977Z,11.30
2018-06-03T15:13:41.469Z,12.00
2018-06-03T15:16:09.941Z,10.33
2018-06-03T15:18:38.966Z,11.57
2018-06-03T15:21:07.470Z,12.10
2018-06-03T15:23:35.955Z,12.20
2018-06-03T15:26:04.639Z,11.30
2018-06-03T15:28:33.186Z,11.10
2018-06-03T15:31:02.398Z,10.67
2018-06-03T15:33:30.891Z,10.57
2018-06-03T15:35:59.407Z,10.30
2018-06-03T15:38:28.069Z,10.17
2018-06-03T15:40:56.591Z,10.17
2018-06-03T15:43:25.053Z,10.73
2018-06-03T15:45:53.982Z,11.20
2018-06-03T15:48:22.449Z,11.30
2018-06-03T15:50:50.930Z,10.90
2018-06-03T15:53:19.530Z,11.60
2018-06-03T15:55:48.031Z,11.13
2018-06-03T15:58:16.547Z,10.90
2018-06-03T16:00:45.179Z,11.20
2018-06-03T16:03:13.682Z,10.73
2018-06-03T16:05:42.196Z,10.53
2018-06-03T16:08:10.794Z,10.00
2018-06-03T16:10:39.274Z,11.23
2018-06-03T16:13:07.790Z,9.60
2018-06-03T16:15:36.297Z,10.40
2018-06-03T16:18:04.839Z,10.47
2018-06-03T16:20:33.337Z,10.80
2018-06-03T16:23:01.831Z,11.60
2018-06-03T16:25:30.364Z,10.33
2018-06-03T16:27:58.906Z,10.07
2018-06-03T16:30:27.404Z,9.80
2018-06-03T16:32:55.844Z,9.20
2018-06-03T16:35:24.355Z,10.10
2018-06-03T16:37:52.881Z,10.67
2018-06-03T16:40:21.419Z,10.50
2018-06-03T16:42:49.918Z,10.03
2018-06-03T16:45:18.430Z,9.53
2018-06-03T16:47:47.085Z,9.53
2018-06-03T16:50:15.601Z,8.90
2018-06-03T16:52:44.139Z,8.83
2018-06-03T16:55:12.612Z,9.50
2018-06-03T16:57:41.074Z,9.50
2018-06-03T17:00:09.609Z,9.50
2018-06-03T17:02:38.174Z,10.33
2018-06-03T17:05:06.699Z,9.20
2018-06-03T17:07:35.342Z,9.37
2018-06-03T17:10:04.011Z,9.80
2018-06-03T17:12:32.619Z,9.30
2018-06-03T17:15:01.227Z,9.73
2018-06-03T17:17:29.822Z,10.03
2018-06-03T17:19:58.765Z,10.30
2018-06-03T17:22:27.267Z,9.77
2018-06-03T17:24:55.795Z,10.63
2018-06-03T17:27:24.752Z,10.10
2018-06-03T17:29:53.194Z,10.60
2018-06-03T17:32:21.694Z,9.30
2018-06-03T17:34:50.313Z,9.90
2018-06-03T17:37:18.789Z,9.13
2018-06-03T17:39:47.290Z,8.87
2018-06-03T17:42:15.774Z,10.87
2018-06-03T17:44:44.313Z,10.03
2018-06-03T17:47:12.825Z,10.60
2018-06-03T17:49:41.312Z,10.70
2018-06-03T17:52:09.802Z,10.50
2018-06-03T17:54:38.302Z,10.97
2018-06-03T17:57:06.828Z,10.20
2018-06-03T17:59:35.470Z,10.10
2018-06-03T18:02:03.995Z,10.70
2018-06-03T18:04:32.505Z,10.13
2018-06-03T18:07:01.040Z,11.20
2018-06-03T18:09:29.563Z,10.27
2018-06-03T18:11:58.195Z,12.00
2018-06-03T18:14:26.678Z,11.10
2018-06-03T18:16:55.227Z,11.37
2018-06-03T18:19:23.738Z,11.83
2018-06-03T18:21:52.285Z,10.93
2018-06-03T18:24:20.758Z,10.40
2018-06-03T18:26:49.255Z,11.13
2018-06-03T18:29:17.771Z,10.40
2018-06-03T18:31:46.262Z,9.80
2018-06-03T18:34:14.866Z,9.33
2018-06-03T18:36:43.345Z,10.40
2018-06-03T18:39:11.870Z,10.10
2018-06-03T18:41:40.700Z,10.10
2018-06-03T18:44:09.170Z,10.73
2018-06-03T18:46:38.356Z,10.73
2018-06-03T18:49:06.878Z,10.40
2018-06-03T18:51:39.570Z,10.50
2018-06-03T18:54:08.070Z,9.80
2018-06-03T18:56:36.699Z,8.20
2018-06-03T18:59:05.165Z,9.50
2018-06-03T19:01:33.703Z,8.90
2018-06-03T19:04:02.306Z,9.33
2018-06-03T19:06:30.827Z,8.80
2018-06-03T19:08:59.351Z,9.17
2018-06-03T19:11:27.875Z,8.90
2018-06-03T19:13:56.429Z,9.83
2018-06-03T19:16:25.001Z,9.80
2018-06-03T19:18:53.585Z,8.20
2018-06-03T19:21:22.068Z,9.63
2018-06-03T19:23:50.566Z,9.53
2018-06-03T19:26:19.067Z,9.70
2018-06-03T19:28:47.690Z,10.17
2018-06-03T19:31:16.171Z,10.10
2018-06-03T19:33:44.684Z,9.70
2018-06-03T19:36:13.167Z,9.97
2018-06-03T19:38:41.651Z,11.10
2018-06-03T19:41:10.167Z,10.30
2018-06-03T19:43:38.680Z,12.07
2018-06-03T19:46:07.219Z,11.27
2018-06-03T19:48:35.731Z,11.73
2018-06-03T19:51:04.222Z,11.77
2018-06-03T19:53:32.751Z,12.77
2018-06-03T19:56:01.246Z,12.50
2018-06-03T19:58:29.725Z,12.07
2018-06-03T20:00:58.268Z,12.40
2018-06-03T20:03:26.810Z,11.50
2018-06-03T20:05:55.281Z,11.23
2018-06-03T20:08:23.763Z,12.17
2018-06-03T20:10:52.281Z,11.97
2018-06-03T20:13:20.765Z,12.23
2018-06-03T20:15:49.339Z,14.80
2018-06-03T20:18:18.699Z,11.73
2018-06-03T20:20:47.199Z,12.77
2018-06-03T20:23:16.081Z,13.77
2018-06-03T20:25:44.565Z,13.20
2018-06-03T20:28:13.050Z,11.70
2018-06-03T20:30:41.561Z,11.23
2018-06-03T20:33:10.052Z,13.40
2018-06-03T20:35:38.800Z,13.87
2018-06-03T20:38:07.346Z,14.27
2018-06-03T20:40:35.823Z,12.50
2018-06-03T20:43:04.534Z,12.47
2018-06-03T20:45:33.031Z,11.70
2018-06-03T20:48:01.580Z,13.73
2018-06-03T20:50:30.167Z,12.60
2018-06-03T20:52:58.633Z,13.40
2018-06-03T20:55:27.119Z,13.70
2018-06-03T20:57:55.628Z,14.60
2018-06-03T21:00:24.188Z,16.30
2018-06-03T21:02:52.691Z,19.20
2018-06-03T21:05:21.333Z,19.90
2018-06-03T21:07:50.217Z,20.23
2018-06-03T21:10:18.702Z,22.60
2018-06-03T21:12:47.165Z,27.80
2018-06-03T21:15:15.757Z,26.27
2018-06-03T21:17:44.237Z,32.00
2018-06-03T21:20:12.795Z,31.03
2018-06-03T21:22:41.282Z,31.17
2018-06-03T21:25:09.750Z,34.90
2018-06-03T21:27:38.599Z,37.07
2018-06-03T21:30:07.149Z,39.03
2018-06-03T21:32:35.643Z,39.33
2018-06-03T21:35:04.146Z,40.93
2018-06-03T21:37:32.634Z,41.30
2018-06-03T21:40:01.187Z,40.30
2018-06-03T21:42:30.404Z,42.93
2018-06-03T21:44:59.025Z,44.03
2018-06-03T21:47:27.492Z,44.23
2018-06-03T21:49:55.970Z,46.13
2018-06-03T21:52:24.481Z,45.67
2018-06-03T21:54:52.979Z,48.17
2018-06-03T21:57:21.506Z,46.10
2018-06-03T21:59:49.987Z,48.67
2018-06-03T22:02:18.458Z,48.47
2018-06-03T22:04:46.963Z,49.70
2018-06-03T22:07:15.434Z,47.53
2018-06-03T22:09:43.942Z,48.97
2018-06-03T22:12:12.434Z,46.50
2018-06-03T22:14:40.938Z,47.00
2018-06-03T22:17:09.455Z,50.80
2018-06-03T22:19:37.953Z,48.87
2018-06-03T22:22:06.482Z,50.80
2018-06-03T22:24:35.041Z,50.57
2018-06-03T22:27:03.533Z,50.53
2018-06-03T22:29:32.022Z,48.97
2018-06-03T22:32:00.539Z,49.90
2018-06-03T22:34:29.014Z,50.70
2018-06-03T22:36:57.586Z,50.67
2018-06-03T22:39:26.118Z,50.30
2018-06-03T22:41:54.590Z,49.27
2018-06-03T22:44:23.454Z,51.03
2018-06-03T22:46:51.938Z,51.80
2018-06-03T22:49:20.393Z,46.83
2018-06-03T22:51:48.889Z,46.33
2018-06-03T22:54:17.369Z,46.57
2018-06-03T22:57:54.497Z,48.77
2018-06-03T23:00:28.457Z,44.87
2018-06-03T23:03:02.223Z,43.83
2018-06-03T23:05:30.745Z,45.00
2018-06-03T23:07:59.674Z,43.30
2018-06-03T23:10:28.177Z,41.53
2018-06-03T23:12:56.724Z,43.83
2018-06-03T23:15:25.293Z,40.70
2018-06-03T23:17:53.794Z,40.10
2018-06-03T23:20:22.272Z,37.40
2018-06-03T23:22:50.780Z,40.70
2018-06-03T23:25:19.239Z,39.57
2018-06-03T23:27:47.828Z,40.20
2018-06-03T23:30:16.294Z,39.27
2018-06-03T23:32:44.797Z,40.87
2018-06-03T23:35:13.294Z,40.43
2018-06-03T23:37:41.778Z,41.40
2018-06-03T23:40:10.274Z,39.27
2018-06-03T23:42:38.750Z,39.10
2018-06-03T23:45:07.566Z,41.37
2018-06-03T23:47:36.042Z,45.47
2018-06-03T23:50:04.629Z,39.57
2018-06-03T23:52:33.143Z,41.70
2018-06-03T23:55:01.627Z,42.10
2018-06-03T23:57:30.303Z,41.70
2018-06-03T23:59:58.769Z,37.83
